Time;durP1;ratioP1;P1;durP2;ratioP2;P2;SDS_P1;SDS_P2;PMS_P1;PMS_P2;Temp;Humidity;BMP_temperature;BMP_pressure;BME280_temperature;BME280_humidity;BME280_pressure;Samples;Min_cycle;Max_cycle;Signal;HPM_P1;HPM_P2
2023/03/18 00:01:06;;;;;;;7.75;4.13;;;;;;;12.47;66.07;100648.09;5063801;28;20060;-77
2023/03/18 00:03:36;;;;;;;8.73;4.30;;;;;;;12.38;66.06;100651.97;5060262;28;20037;-77
2023/03/18 00:06:14;;;;;;;10.05;4.63;;;;;;;12.31;66.38;100645.22;5064920;28;20777;-77
2023/03/18 00:08:44;;;;;;;10.23;4.75;;;;;;;12.23;66.44;100653.44;5065979;28;20546;-77
2023/03/18 00:11:14;;;;;;;10.27;5.53;;;;;;;12.20;66.79;100656.25;5066145;28;20045;-77
2023/03/18 00:13:42;;;;;;;11.30;4.70;;;;;;;12.18;66.86;100654.56;5067921;28;20101;-76
2023/03/18 00:16:11;;;;;;;8.65;4.70;;;;;;;12.17;66.87;100644.91;5063961;28;20049;-77
2023/03/18 00:18:40;;;;;;;10.93;4.70;;;;;;;12.19;67.26;100653.63;5066670;28;20041;-76
2023/03/18 00:21:08;;;;;;;11.10;5.28;;;;;;;12.14;67.32;100643.25;5065904;28;20148;-77
2023/03/18 00:23:35;;;;;;;11.38;5.20;;;;;;;12.15;67.62;100642.34;5066338;28;20079;-77
2023/03/18 00:26:04;;;;;;;10.35;5.22;;;;;;;12.13;67.83;100649.44;5064668;28;20044;-77
2023/03/18 00:28:31;;;;;;;11.02;5.65;;;;;;;12.11;68.11;100651.28;5067677;28;20068;-77
2023/03/18 00:31:07;;;;;;;13.18;5.20;;;;;;;12.09;68.33;100647.88;5064649;28;20116;-75
2023/03/18 00:33:36;;;;;;;11.75;5.10;;;;;;;12.04;68.63;100648.06;5066893;28;20068;-76
2023/03/18 00:36:08;;;;;;;8.75;5.38;;;;;;;12.08;68.66;100662.00;5064446;28;20061;-78
2023/03/18 00:38:36;;;;;;;11.65;5.47;;;;;;;12.05;68.62;100662.13;5067719;28;20124;-78
2023/03/18 00:41:10;;;;;;;9.90;5.32;;;;;;;12.05;69.04;100670.03;5064592;28;20468;-78
2023/03/18 00:43:53;;;;;;;12.13;5.38;;;;;;;12.02;69.07;100676.31;5050370;28;20246;-79
2023/03/18 00:46:26;;;;;;;9.60;5.32;;;;;;;11.98;69.01;100669.41;5065055;28;20124;-78
2023/03/18 00:49:00;;;;;;;10.52;5.65;;;;;;;11.95;69.15;100675.66;5066729;28;20104;-78
2023/03/18 00:51:31;;;;;;;12.55;5.78;;;;;;;11.90;69.35;100672.34;5080135;28;20059;-78
2023/03/18 00:54:05;;;;;;;10.88;5.57;;;;;;;11.87;69.63;100668.94;5064748;28;20037;-77
2023/03/18 00:56:36;;;;;;;9.75;5.43;;;;;;;11.83;69.78;100673.47;5060276;28;20041;-78
2023/03/18 00:59:06;;;;;;;13.30;5.60;;;;;;;11.81;69.72;100681.47;5065244;28;20053;-78
2023/03/18 01:01:33;;;;;;;10.25;5.55;;;;;;;11.79;69.95;100674.53;5065294;28;20512;-77
2023/03/18 01:04:01;;;;;;;12.82;5.82;;;;;;;11.78;70.01;100678.09;5064573;28;20037;-80
2023/03/18 01:06:32;;;;;;;11.02;5.68;;;;;;;11.74;69.98;100672.06;5063274;28;20084;-80
2023/03/18 01:09:01;;;;;;;14.32;5.65;;;;;;;11.73;70.23;100672.97;5067817;28;20041;-78
2023/03/18 01:11:29;;;;;;;11.70;5.65;;;;;;;11.71;70.18;100673.94;5064038;28;20124;-78
2023/03/18 01:13:58;;;;;;;11.23;5.82;;;;;;;11.69;70.41;100681.06;5066837;28;20041;-77
2023/03/18 01:16:25;;;;;;;10.25;5.80;;;;;;;11.69;70.48;100683.72;5051065;28;20044;-78
2023/03/18 01:18:53;;;;;;;12.98;6.43;;;;;;;11.68;70.75;100687.28;5065738;28;20037;-77
2023/03/18 01:21:21;;;;;;;12.90;6.13;;;;;;;11.69;70.77;100684.56;5058392;28;20041;-77
2023/03/18 01:23:53;;;;;;;14.05;5.78;;;;;;;11.67;71.07;100680.28;5056184;28;20092;-78
2023/03/18 01:26:21;;;;;;;9.82;6.07;;;;;;;11.68;71.05;100689.91;5059957;28;20041;-77
2023/03/18 01:28:48;;;;;;;11.00;6.25;;;;;;;11.67;71.25;100688.19;5065820;28;20049;-77
2023/03/18 01:31:15;;;;;;;12.65;6.13;;;;;;;11.66;71.61;100684.66;5055763;28;20048;-77
2023/03/18 01:33:45;;;;;;;11.40;6.10;;;;;;;11.66;71.79;100692.59;5062211;28;20199;-77
2023/03/18 01:36:12;;;;;;;19.50;6.95;;;;;;;11.68;72.00;100689.91;5081161;28;20080;-77
2023/03/18 01:38:41;;;;;;;15.05;7.50;;;;;;;11.68;72.02;100687.28;5081795;28;20044;-77
2023/03/18 01:41:11;;;;;;;11.27;6.70;;;;;;;11.69;72.24;100686.34;5062732;28;20139;-76
2023/03/18 01:43:41;;;;;;;16.35;7.32;;;;;;;11.70;72.49;100685.44;5063775;28;20853;-77
2023/03/18 01:46:36;;;;;;;12.15;6.78;;;;;;;11.71;72.68;100684.50;5063178;28;20535;-76
2023/03/18 01:49:12;;;;;;;15.52;7.28;;;;;;;11.73;73.02;100687.94;5068416;28;20537;-77
2023/03/18 01:51:52;;;;;;;13.48;7.43;;;;;;;11.75;73.16;100688.75;5065395;28;20051;-78
2023/03/18 01:54:22;;;;;;;15.18;7.47;;;;;;;11.77;73.60;100686.94;5068830;28;20551;-78
2023/03/18 01:56:52;;;;;;;16.08;7.78;;;;;;;11.77;73.75;100674.56;5065764;28;20037;-78
2023/03/18 01:59:25;;;;;;;14.02;8.20;;;;;;;11.77;73.99;100682.50;5065655;28;20146;-78
2023/03/18 02:02:09;;;;;;;11.57;7.47;;;;;;;11.76;74.41;100677.28;5063038;28;20069;-77
2023/03/18 02:04:52;;;;;;;13.25;7.88;;;;;;;11.72;74.60;100676.53;5061951;28;20076;-77
2023/03/18 02:07:24;;;;;;;15.73;8.13;;;;;;;11.72;74.79;100673.91;5061562;28;20096;-77
2023/03/18 02:09:53;;;;;;;15.80;8.25;;;;;;;11.72;74.71;100673.91;5066209;28;20040;-77
2023/03/18 02:12:32;;;;;;;16.42;7.72;;;;;;;11.71;74.89;100669.53;5066026;28;20481;-78
2023/03/18 02:15:06;;;;;;;12.55;7.20;;;;;;;11.70;74.83;100666.97;5063991;28;20075;-77
2023/03/18 02:17:40;;;;;;;13.43;7.80;;;;;;;11.67;75.03;100665.28;5066007;28;20041;-79
2023/03/18 02:20:52;;;;;;;16.20;7.55;;;;;;;11.68;75.24;100661.72;5064131;28;20045;-78
2023/03/18 02:23:50;;;;;;;13.70;7.97;;;;;;;11.65;75.18;100680.31;5062913;28;20150;-78
2023/03/18 02:26:35;;;;;;;16.55;8.15;;;;;;;11.61;75.51;100686.63;5061681;28;20045;-78
2023/03/18 02:29:07;;;;;;;13.63;7.53;;;;;;;11.59;75.54;100683.19;5064677;28;20049;-81
2023/03/18 02:31:46;;;;;;;12.48;7.78;;;;;;;11.57;75.83;100677.09;5063041;28;20069;-81
2023/03/18 02:34:14;;;;;;;14.30;8.20;;;;;;;11.56;75.98;100678.00;5063070;28;20037;-80
2023/03/18 02:36:42;;;;;;;16.38;8.73;;;;;;;11.55;76.18;100684.25;5062728;28;20060;-81
2023/03/18 02:39:15;;;;;;;14.50;8.30;;;;;;;11.53;76.42;100680.78;5055602;28;20056;-81
2023/03/18 02:41:43;;;;;;;18.60;9.30;;;;;;;11.50;76.62;100682.63;5065105;28;20098;-80
2023/03/18 02:44:11;;;;;;;14.02;7.90;;;;;;;11.49;76.74;100688.81;5066811;28;20099;-80
2023/03/18 02:47:02;;;;;;;15.23;8.15;;;;;;;11.46;77.06;100686.28;5061548;28;20041;-80
2023/03/18 02:49:31;;;;;;;17.05;8.93;;;;;;;11.45;76.93;100689.81;5063739;28;20049;-77
2023/03/18 02:51:59;;;;;;;13.98;8.05;;;;;;;11.45;77.18;100697.75;5057457;28;20132;-75
2023/03/18 02:54:29;;;;;;;11.60;8.38;;;;;;;11.46;77.38;100696.81;5066341;28;20075;-75
2023/03/18 02:56:56;;;;;;;16.40;9.15;;;;;;;11.46;77.43;100704.75;5062932;28;20091;-75
2023/03/18 02:59:25;;;;;;;15.52;8.88;;;;;;;11.47;77.72;100708.25;5063639;28;20513;-75
2023/03/18 03:01:54;;;;;;;19.35;9.05;;;;;;;11.46;77.79;100715.31;5061531;28;20045;-75
2023/03/18 03:04:24;;;;;;;15.52;8.95;;;;;;;11.49;77.59;100717.00;5055512;28;20630;-75
2023/03/18 03:06:55;;;;;;;13.90;8.93;;;;;;;11.47;77.70;100719.66;5064310;28;20428;-76
2023/03/18 03:09:34;;;;;;;15.70;9.13;;;;;;;11.45;77.82;100712.72;5058644;28;20053;-76
2023/03/18 03:12:04;;;;;;;15.35;9.27;;;;;;;11.46;78.24;100719.75;5061030;28;20045;-77
2023/03/18 03:14:31;;;;;;;17.95;9.18;;;;;;;11.43;78.34;100715.44;5063185;28;20092;-77
2023/03/18 03:17:01;;;;;;;15.65;9.60;;;;;;;11.45;78.42;100720.66;5064031;28;20053;-76
2023/03/18 03:19:29;;;;;;;16.70;9.27;;;;;;;11.44;78.37;100726.84;5064679;28;20113;-76
2023/03/18 03:21:57;;;;;;;17.33;10.65;;;;;;;11.42;78.31;100733.94;5063637;28;20543;-79
2023/03/18 03:24:25;;;;;;;16.30;9.43;;;;;;;11.40;78.87;100728.75;5062391;28;20049;-78
2023/03/18 03:26:52;;;;;;;16.25;9.68;;;;;;;11.37;78.90;100720.91;5064580;28;20049;-76
2023/03/18 03:29:19;;;;;;;16.10;10.02;;;;;;;11.37;79.16;100722.72;5063194;28;20052;-76
2023/03/18 03:31:48;;;;;;;18.27;11.02;;;;;;;11.35;79.31;100728.03;5053971;28;20116;-76
2023/03/18 03:34:15;;;;;;;17.55;10.20;;;;;;;11.33;79.65;100728.09;5078978;28;20140;-76
2023/03/18 03:36:43;;;;;;;20.65;11.43;;;;;;;11.30;79.92;100724.69;5065464;28;20057;-77
2023/03/18 03:39:11;;;;;;;16.48;10.75;;;;;;;11.26;80.16;100725.72;5060226;28;20049;-77
2023/03/18 03:41:38;;;;;;;18.45;10.95;;;;;;;11.23;80.65;100734.59;5065522;28;20049;-77
2023/03/18 03:44:06;;;;;;;17.77;10.10;;;;;;;11.18;81.28;100733.91;5066517;28;20501;-77
2023/03/18 03:46:34;;;;;;;18.08;11.65;;;;;;;11.14;81.18;100748.97;5065812;28;20648;-77
2023/03/18 03:49:02;;;;;;;20.80;12.02;;;;;;;11.12;81.41;100744.66;5067602;28;20445;-78
2023/03/18 03:51:29;;;;;;;19.85;11.02;;;;;;;11.10;81.31;100747.38;5065220;28;20114;-78
2023/03/18 03:53:56;;;;;;;20.70;11.55;;;;;;;11.11;81.86;100753.50;5065685;28;20041;-78
2023/03/18 03:56:24;;;;;;;19.17;12.18;;;;;;;11.11;81.96;100750.84;5061521;28;20037;-78
2023/03/18 03:58:51;;;;;;;21.50;12.00;;;;;;;11.12;81.97;100757.84;5082775;28;20167;-78
2023/03/18 04:01:19;;;;;;;21.90;12.68;;;;;;;11.11;82.13;100748.22;5065480;28;20044;-78
2023/03/18 04:03:48;;;;;;;17.05;11.18;;;;;;;11.10;82.07;100752.63;5061035;28;20111;-77
2023/03/18 04:06:19;;;;;;;20.58;12.68;;;;;;;11.12;82.31;100757.84;5066757;28;20053;-77
2023/03/18 04:08:55;;;;;;;19.92;12.23;;;;;;;11.10;82.38;100762.31;5067049;28;20041;-77
2023/03/18 04:11:22;;;;;;;19.08;12.13;;;;;;;11.10;82.65;100763.19;5064138;28;20052;-78
2023/03/18 04:13:50;;;;;;;21.25;12.82;;;;;;;11.09;82.63;100755.34;5067443;28;20049;-80
2023/03/18 04:16:17;;;;;;;17.73;11.57;;;;;;;11.09;82.83;100760.63;5064678;28;20037;-80
2023/03/18 04:18:45;;;;;;;22.80;13.18;;;;;;;11.08;82.36;100762.38;5063809;28;20154;-77
2023/03/18 04:21:13;;;;;;;20.08;12.93;;;;;;;11.08;82.98;100769.44;5066951;28;20045;-78
2023/03/18 04:23:48;;;;;;;20.50;13.07;;;;;;;11.07;83.09;100762.44;5066146;28;20064;-77
2023/03/18 04:26:16;;;;;;;19.40;13.07;;;;;;;11.06;83.27;100765.97;5067663;28;20041;-77
2023/03/18 04:28:43;;;;;;;23.25;12.93;;;;;;;11.05;83.27;100769.53;5067334;28;20041;-76
2023/03/18 04:31:14;;;;;;;24.65;13.57;;;;;;;11.04;83.59;100768.66;5065761;28;20127;-77
2023/03/18 04:33:43;;;;;;;23.52;14.02;;;;;;;11.03;83.70;100764.31;5061998;28;20045;-75
2023/03/18 04:36:10;;;;;;;21.45;14.00;;;;;;;11.00;83.95;100769.69;5065457;28;20879;-76
2023/03/18 04:38:38;;;;;;;18.70;13.02;;;;;;;10.99;84.11;100779.34;5064800;28;20059;-76
2023/03/18 04:41:06;;;;;;;21.17;13.82;;;;;;;10.97;84.15;100783.84;5066014;28;20102;-76
2023/03/18 04:43:33;;;;;;;25.92;13.80;;;;;;;10.95;84.38;100783.03;5065702;28;20045;-76
2023/03/18 04:46:00;;;;;;;27.63;14.60;;;;;;;10.95;84.78;100779.50;5052401;28;20120;-76
2023/03/18 04:48:29;;;;;;;21.48;14.07;;;;;;;10.95;84.92;100776.88;5063635;28;20107;-75
2023/03/18 04:50:58;;;;;;;24.40;14.98;;;;;;;10.93;85.52;100776.09;5063877;28;20550;-75
2023/03/18 04:53:29;;;;;;;23.75;13.88;;;;;;;10.91;nan;100770.00;5062053;28;20055;-75
2023/03/18 04:55:56;;;;;;;23.15;13.90;;;;;;;10.86;85.99;100765.72;5062474;28;20052;-75
2023/03/18 04:58:31;;;;;;;23.25;14.40;;;;;;;10.84;86.03;100772.81;5065358;28;20618;-75
2023/03/18 05:01:07;;;;;;;23.88;14.93;;;;;;;10.83;85.79;100772.88;5049701;28;20041;-76
2023/03/18 05:03:36;;;;;;;24.27;14.70;;;;;;;10.82;86.25;100779.94;5063893;28;20121;-77
2023/03/18 05:06:08;;;;;;;25.77;15.30;;;;;;;10.82;86.71;100768.50;5049937;28;20045;-77
2023/03/18 05:08:48;;;;;;;21.63;14.70;;;;;;;10.80;86.59;100787.03;5065607;28;20469;-77
2023/03/18 05:11:15;;;;;;;20.75;14.30;;;;;;;10.79;86.53;100784.41;5063270;28;20048;-77
2023/03/18 05:13:42;;;;;;;22.67;14.48;;;;;;;10.78;86.76;100786.22;5064832;28;20426;-76
2023/03/18 05:16:11;;;;;;;26.73;15.70;;;;;;;10.78;86.85;100791.47;5064816;28;20075;-78
2023/03/18 05:18:40;;;;;;;23.13;15.80;;;;;;;10.78;86.97;100786.22;5063588;28;20437;-79
2023/03/18 05:21:08;;;;;;;27.02;15.60;;;;;;;10.78;87.03;100796.75;5064634;28;20731;-79
2023/03/18 05:23:38;;;;;;;22.63;14.70;;;;;;;10.76;87.14;100793.28;5059459;28;20041;-77
2023/03/18 05:26:05;;;;;;;21.35;14.43;;;;;;;10.77;87.49;100799.44;5066239;28;20083;-76
2023/03/18 05:28:33;;;;;;;25.50;15.45;;;;;;;10.76;87.44;100793.28;5062028;28;20132;-78
2023/03/18 05:31:10;;;;;;;23.38;15.02;;;;;;;10.78;87.50;100793.28;5063448;28;20572;-77
2023/03/18 05:33:41;;;;;;;22.58;15.40;;;;;;;10.76;87.60;100792.44;5063561;28;20045;-77
2023/03/18 05:36:10;;;;;;;23.95;15.13;;;;;;;10.77;87.93;100800.31;5076992;28;20067;-77
2023/03/18 05:38:46;;;;;;;27.95;15.00;;;;;;;10.77;87.55;100804.72;5078584;28;20048;-77
2023/03/18 05:41:13;;;;;;;25.77;15.48;;;;;;;10.75;87.74;100801.28;5062430;28;20478;-78
2023/03/18 05:43:41;;;;;;;25.15;15.75;;;;;;;10.76;87.96;100803.00;5059061;28;20160;-77
2023/03/18 05:46:08;;;;;;;27.25;14.45;;;;;;;10.76;88.05;100798.56;5057382;28;20049;-77
2023/03/18 05:48:55;;;;;;;23.45;14.77;;;;;;;10.75;88.06;100802.13;5061326;28;20044;-77
2023/03/18 05:51:26;;;;;;;25.27;15.05;;;;;;;10.75;88.40;100801.28;5059283;28;20041;-78
2023/03/18 05:53:55;;;;;;;21.90;14.38;;;;;;;10.76;88.23;100809.13;5067162;28;20636;-78
2023/03/18 05:56:27;;;;;;;23.33;15.52;;;;;;;10.78;88.75;100814.38;5061573;28;20040;-79
2023/03/18 05:58:58;;;;;;;25.08;14.57;;;;;;;10.79;88.19;100813.44;5067063;28;20049;-78
2023/03/18 06:01:32;;;;;;;25.38;14.68;;;;;;;10.80;88.13;100815.16;5062291;28;20115;-77
2023/03/18 06:04:01;;;;;;;25.75;15.45;;;;;;;10.82;88.23;100811.59;5060111;28;20045;-78
2023/03/18 06:06:29;;;;;;;21.63;14.52;;;;;;;10.81;88.56;100808.97;5059224;28;20551;-78
2023/03/18 06:08:57;;;;;;;22.38;15.10;;;;;;;10.82;88.45;100819.50;5063073;28;20079;-78
2023/03/18 06:11:25;;;;;;;21.50;15.23;;;;;;;10.82;88.27;100815.97;5062493;28;20079;-78
2023/03/18 06:13:53;;;;;;;23.67;15.45;;;;;;;10.82;88.67;100826.53;5062214;28;20048;-78
2023/03/18 06:16:22;;;;;;;21.48;14.77;;;;;;;10.82;88.77;100843.22;5060717;28;20565;-78
2023/03/18 06:18:52;;;;;;;25.42;15.15;;;;;;;10.84;88.89;100844.00;5059368;28;20536;-78
2023/03/18 06:21:19;;;;;;;24.45;14.88;;;;;;;10.86;88.76;100836.06;5076611;28;20081;-78
2023/03/18 06:23:46;;;;;;;24.00;14.52;;;;;;;10.87;89.09;100845.72;5080225;28;20802;-78
2023/03/18 06:26:14;;;;;;;23.92;15.13;;;;;;;10.87;89.11;100838.66;5062204;28;20075;-77
2023/03/18 06:28:46;;;;;;;20.85;14.52;;;;;;;10.90;89.12;100845.59;5064814;28;20041;-77
2023/03/18 06:31:16;;;;;;;19.73;13.93;;;;;;;10.92;89.37;100845.56;5061450;28;20049;-78
2023/03/18 06:33:44;;;;;;;21.33;13.90;;;;;;;10.94;89.31;100841.09;5064510;28;20056;-77
2023/03/18 06:36:15;;;;;;;18.98;13.55;;;;;;;10.96;89.38;100841.91;5062159;28;20053;-76
2023/03/18 06:38:49;;;;;;;20.17;13.85;;;;;;;10.98;89.34;100835.69;5060409;28;20501;-76
2023/03/18 06:41:17;;;;;;;22.02;13.35;;;;;;;11.02;89.34;100832.03;5077329;28;20053;-76
2023/03/18 06:43:57;;;;;;;19.67;13.35;;;;;;;11.05;89.43;100823.16;5061932;28;20056;-76
2023/03/18 06:46:25;;;;;;;21.55;13.38;;;;;;;11.02;89.11;100829.38;5059484;28;20041;-78
2023/03/18 06:48:53;;;;;;;18.42;13.15;;;;;;;10.98;88.82;100845.38;5060708;28;20045;-78
2023/03/18 06:51:24;;;;;;;21.55;13.70;;;;;;;10.99;88.97;100849.72;5062097;28;20049;-79
2023/03/18 06:53:52;;;;;;;22.48;14.38;;;;;;;11.02;89.05;100842.56;5058282;28;20033;-78
2023/03/18 06:56:21;;;;;;;19.55;13.30;;;;;;;11.10;88.84;100847.63;5061895;28;20052;-78
2023/03/18 06:59:09;;;;;;;20.25;13.55;;;;;;;11.12;88.48;100847.56;5060141;28;20537;-79
2023/03/18 07:01:37;;;;;;;19.02;13.27;;;;;;;11.07;88.43;100849.50;5058209;28;20059;-79
2023/03/18 07:04:05;;;;;;;21.88;13.38;;;;;;;11.01;88.76;100850.56;5060842;28;20048;-80
2023/03/18 07:06:33;;;;;;;18.73;13.18;;;;;;;10.99;88.43;100841.81;5058704;28;20502;-80
2023/03/18 07:09:00;;;;;;;18.05;12.68;;;;;;;11.02;88.40;100858.41;5061614;28;20494;-79
2023/03/18 07:11:28;;;;;;;19.48;13.82;;;;;;;11.08;88.38;100852.06;5063232;28;20657;-80
2023/03/18 07:13:57;;;;;;;21.70;13.15;;;;;;;11.14;88.36;100859.78;5064909;28;20481;-79
2023/03/18 07:16:31;;;;;;;19.90;13.73;;;;;;;11.22;88.30;100862.19;5066466;28;20065;-78
2023/03/18 07:18:59;;;;;;;21.95;13.55;;;;;;;11.30;88.19;100862.78;5065669;28;20048;-79
2023/03/18 07:21:28;;;;;;;20.17;13.32;;;;;;;11.38;88.24;100865.16;5062082;28;20052;-78
2023/03/18 07:23:55;;;;;;;19.33;13.25;;;;;;;11.45;88.11;100868.47;5064561;28;20687;-78
2023/03/18 07:26:24;;;;;;;20.17;12.52;;;;;;;11.54;87.90;100876.09;5064184;28;20115;-78
2023/03/18 07:28:51;;;;;;;17.38;12.88;;;;;;;11.61;87.85;100888.16;5066607;28;20551;-78
2023/03/18 07:31:18;;;;;;;21.70;13.07;;;;;;;11.68;87.82;100883.53;5063705;28;20048;-77
2023/03/18 07:33:45;;;;;;;17.33;12.30;;;;;;;11.78;87.24;100884.09;5065971;28;20092;-77
2023/03/18 07:36:13;;;;;;;20.98;12.95;;;;;;;11.90;87.51;100888.94;5065657;28;20053;-77
2023/03/18 07:38:40;;;;;;;19.45;12.35;;;;;;;11.98;87.28;100883.41;5066276;28;20583;-78
2023/03/18 07:41:07;;;;;;;16.40;11.35;;;;;;;12.08;87.00;100890.09;5068182;28;20103;-79
2023/03/18 07:43:35;;;;;;;17.23;10.95;;;;;;;12.22;87.05;100888.75;5061813;28;20037;-76
2023/03/18 07:46:03;;;;;;;15.93;11.00;;;;;;;12.41;87.31;100895.06;5066104;28;20056;-76
2023/03/18 07:48:32;;;;;;;18.15;10.98;;;;;;;12.59;87.17;100890.00;5065206;28;20045;-76
2023/03/18 07:51:01;;;;;;;15.15;11.00;;;;;;;12.71;86.90;100904.56;5064588;28;20061;-77
2023/03/18 07:53:28;;;;;;;14.88;10.48;;;;;;;12.80;86.55;100909.50;5069638;28;20049;-76
2023/03/18 07:55:55;;;;;;;17.55;11.15;;;;;;;12.90;86.77;100904.69;5068974;28;20043;-76
2023/03/18 07:58:23;;;;;;;15.93;11.05;;;;;;;13.04;85.74;100907.69;5068491;28;20045;-76
2023/03/18 08:00:51;;;;;;;15.13;10.65;;;;;;;13.20;84.92;100913.22;5065207;28;20884;-76
2023/03/18 08:03:18;;;;;;;12.98;9.82;;;;;;;13.35;83.94;100902.91;5060083;28;20122;-77
2023/03/18 08:05:45;;;;;;;12.80;9.05;;;;;;;13.41;83.23;100912.44;5057054;28;20044;-75
2023/03/18 08:08:13;;;;;;;13.70;9.40;;;;;;;13.44;83.11;100912.31;5063943;28;20420;-75
2023/03/18 08:10:40;;;;;;;24.35;10.32;;;;;;;13.47;82.63;100920.13;5066476;28;20548;-74
2023/03/18 08:13:07;;;;;;;16.15;10.20;;;;;;;13.59;82.45;100924.06;5056258;28;20048;-75
2023/03/18 08:15:34;;;;;;;13.93;9.93;;;;;;;13.64;82.21;100925.59;5066102;28;20446;-73
2023/03/18 08:18:01;;;;;;;13.88;9.15;;;;;;;13.68;81.75;100923.66;5061979;28;20052;-74
2023/03/18 08:20:28;;;;;;;13.27;8.80;;;;;;;13.67;81.52;100921.94;5056999;28;20041;-74
2023/03/18 08:22:55;;;;;;;13.65;8.80;;;;;;;13.68;81.33;100923.66;5065105;28;20134;-78
2023/03/18 08:25:23;;;;;;;14.13;9.18;;;;;;;13.64;80.98;100927.34;5056720;28;20910;-76
2023/03/18 08:27:51;;;;;;;14.05;9.15;;;;;;;13.59;80.53;100927.56;5067079;28;20128;-76
2023/03/18 08:30:18;;;;;;;13.93;9.50;;;;;;;13.54;80.57;100924.25;5068326;28;20049;-77
2023/03/18 08:32:45;;;;;;;11.82;9.25;;;;;;;13.51;80.46;100927.91;5067438;28;20568;-76
2023/03/18 08:35:13;;;;;;;13.48;9.20;;;;;;;13.54;80.36;100926.03;5068666;28;20116;-77
2023/03/18 08:37:40;;;;;;;11.63;8.55;;;;;;;13.58;80.37;100919.69;5064688;28;20056;-75
2023/03/18 08:40:08;;;;;;;12.98;8.25;;;;;;;13.58;79.15;100922.34;5064987;28;20508;-77
2023/03/18 08:42:35;;;;;;;13.75;8.30;;;;;;;13.55;79.50;100911.84;5067824;28;20053;-77
2023/03/18 08:45:03;;;;;;;12.95;8.55;;;;;;;13.58;79.64;100912.59;5067372;28;20045;-76
2023/03/18 08:47:31;;;;;;;11.88;8.18;;;;;;;13.63;79.52;100912.41;5063696;28;20496;-77
2023/03/18 08:49:58;;;;;;;12.65;8.35;;;;;;;13.68;79.21;100920.19;5067468;28;20080;-78
2023/03/18 08:52:25;;;;;;;11.15;8.48;;;;;;;13.75;79.45;100921.63;5066162;28;20056;-78
2023/03/18 08:54:52;;;;;;;12.32;8.15;;;;;;;13.79;79.54;100925.84;5066716;28;20051;-77
2023/03/18 08:57:18;;;;;;;11.35;8.20;;;;;;;13.89;78.68;100929.00;5067963;28;20037;-77
2023/03/18 08:59:45;;;;;;;10.85;7.75;;;;;;;13.97;79.11;100933.03;5065365;28;20029;-78
2023/03/18 09:02:17;;;;;;;10.38;7.20;;;;;;;14.07;78.92;100925.53;5066015;28;20100;-75
2023/03/18 09:04:44;;;;;;;10.90;7.43;;;;;;;14.13;78.46;100927.06;5077378;28;20067;-76
2023/03/18 09:07:13;;;;;;;10.93;7.28;;;;;;;14.15;78.33;100930.50;5070524;28;20032;-76
2023/03/18 09:09:40;;;;;;;11.10;7.00;;;;;;;14.14;78.12;100929.63;5067783;28;20033;-77
2023/03/18 09:12:11;;;;;;;11.27;7.00;;;;;;;14.13;77.69;100927.06;5066381;28;20056;-77
2023/03/18 09:14:39;;;;;;;10.35;6.82;;;;;;;14.11;77.39;100929.78;5063615;28;20051;-77
2023/03/18 09:17:07;;;;;;;10.50;6.65;;;;;;;14.09;77.10;100922.84;5056307;28;20054;-76
2023/03/18 09:19:35;;;;;;;8.65;6.93;;;;;;;14.04;77.05;100916.84;5053139;28;20044;-76
2023/03/18 09:22:02;;;;;;;9.68;6.90;;;;;;;13.96;77.23;100933.97;5065718;28;20041;-77
2023/03/18 09:24:29;;;;;;;10.60;7.00;;;;;;;13.90;77.05;100926.25;5065390;28;20052;-77
2023/03/18 09:26:58;;;;;;;8.88;6.78;;;;;;;13.87;77.09;100929.06;5057049;28;20922;-77
2023/03/18 09:29:26;;;;;;;10.40;7.30;;;;;;;13.90;77.35;100933.34;5067166;28;20685;-77
2023/03/18 09:31:54;;;;;;;9.57;7.10;;;;;;;14.01;77.55;100931.13;5067311;28;20041;-76
2023/03/18 09:34:21;;;;;;;14.00;7.22;;;;;;;14.16;77.71;100924.28;5066609;28;20120;-77
2023/03/18 09:36:50;;;;;;;8.90;7.05;;;;;;;14.37;77.74;100927.75;5061058;28;20061;-76
2023/03/18 09:39:19;;;;;;;11.30;6.93;;;;;;;14.52;76.96;100935.97;5062719;28;20047;-77
2023/03/18 09:41:58;;;;;;;8.65;6.50;;;;;;;14.60;77.13;100929.34;5066591;28;20049;-77
2023/03/18 09:44:32;;;;;;;8.25;6.72;;;;;;;14.65;76.57;100929.16;5064251;28;20060;-76
2023/03/18 09:47:29;;;;;;;8.95;6.15;;;;;;;14.63;76.42;100936.34;5064655;28;20159;-76
2023/03/18 09:50:26;;;;;;;10.80;6.28;;;;;;;14.62;76.42;100941.69;5065785;28;20059;-78
2023/03/18 09:53:21;;;;;;;10.02;6.47;;;;;;;14.70;76.29;100947.56;5063898;28;20048;-76
2023/03/18 09:55:55;;;;;;;7.93;5.60;;;;;;;14.84;75.64;100944.28;5064162;28;20037;-76
2023/03/18 09:58:43;;;;;;;10.20;5.50;;;;;;;15.07;75.83;100954.66;5060999;28;20045;-77
2023/03/18 10:01:12;;;;;;;7.85;5.80;;;;;;;15.33;75.47;100951.69;5058121;28;20048;-78
2023/03/18 10:03:52;;;;;;;6.97;5.30;;;;;;;15.51;72.57;100944.63;5065442;28;20138;-78
2023/03/18 10:06:23;;;;;;;9.10;5.80;;;;;;;15.55;72.66;100951.50;5061575;28;21103;-77
2023/03/18 10:08:56;;;;;;;8.23;5.25;;;;;;;15.75;72.58;100955.81;5064607;28;20041;-79
2023/03/18 10:11:41;;;;;;;7.32;4.53;;;;;;;15.92;71.73;100954.16;5066486;28;20040;-79
2023/03/18 10:14:41;;;;;;;6.32;4.20;;;;;;;16.03;71.43;100956.25;5066401;28;20537;-78
2023/03/18 10:17:31;;;;;;;5.97;4.60;;;;;;;16.17;71.23;100955.53;5066878;28;20559;-78
2023/03/18 10:20:03;;;;;;;7.60;4.22;;;;;;;16.26;71.26;100952.38;5065761;28;20045;-77
2023/03/18 10:22:44;;;;;;;9.05;4.90;;;;;;;16.38;70.71;100953.56;5059529;28;20144;-76
2023/03/18 10:25:21;;;;;;;7.95;5.55;;;;;;;16.48;70.41;100945.94;5062435;28;20088;-78
2023/03/18 10:28:09;;;;;;;7.38;5.40;;;;;;;16.50;69.75;100952.88;5066811;28;20512;-77
2023/03/18 10:30:56;;;;;;;6.63;5.32;;;;;;;16.50;69.88;100960.88;5049877;28;20048;-76
2023/03/18 10:33:53;;;;;;;6.53;5.43;;;;;;;16.51;69.46;100951.09;5063737;28;20045;-78
2023/03/18 10:36:58;;;;;;;9.27;4.70;;;;;;;16.51;69.46;100940.47;5064505;28;20176;-78
2023/03/18 10:39:28;;;;;;;7.22;4.40;;;;;;;16.52;69.11;100942.19;5065186;28;20044;-78
2023/03/18 10:42:00;;;;;;;6.93;4.53;;;;;;;16.61;68.66;100945.19;5066375;28;20548;-77
2023/03/18 10:44:40;;;;;;;7.15;3.75;;;;;;;16.75;68.35;100935.59;5053734;28;20052;-76
2023/03/18 10:47:14;;;;;;;5.88;4.40;;;;;;;16.89;68.79;100943.66;5066095;28;20045;-76
2023/03/18 10:50:12;;;;;;;6.82;4.20;;;;;;;17.07;68.16;100936.50;5067139;28;20045;-78
2023/03/18 10:53:29;;;;;;;4.65;3.60;;;;;;;17.17;64.89;100938.63;5062924;28;20041;-76
2023/03/18 10:56:07;;;;;;;5.85;4.15;;;;;;;17.15;65.61;100937.84;5067904;28;20048;-76
2023/03/18 10:58:36;;;;;;;6.30;4.22;;;;;;;17.15;64.15;100940.53;5067205;28;20041;-79
2023/03/18 11:01:11;;;;;;;6.18;3.70;;;;;;;17.02;65.31;100935.03;5066761;28;20037;-78
2023/03/18 11:04:05;;;;;;;5.35;3.97;;;;;;;17.05;65.07;100942.88;5062419;28;20489;-76
2023/03/18 11:06:42;;;;;;;5.93;3.80;;;;;;;17.06;65.56;100932.09;5067575;28;20056;-77
2023/03/18 11:09:15;;;;;;;6.05;3.35;;;;;;;17.10;65.54;100934.63;5068500;28;20890;-78
2023/03/18 11:11:48;;;;;;;4.05;3.35;;;;;;;17.21;65.22;100932.19;5068610;28;20537;-77
2023/03/18 11:14:21;;;;;;;7.15;3.50;;;;;;;17.30;64.74;100930.81;5069475;28;20080;-77
2023/03/18 11:16:58;;;;;;;7.05;4.00;;;;;;;17.43;64.52;100929.16;5058531;28;20048;-77
2023/03/18 11:19:30;;;;;;;5.78;3.67;;;;;;;17.53;64.43;100919.69;5066260;28;20041;-77
2023/03/18 11:22:16;;;;;;;5.90;3.40;;;;;;;17.69;64.85;100924.97;5072173;28;20085;-78
2023/03/18 11:24:43;;;;;;;5.55;3.28;;;;;;;17.84;62.91;100919.69;5067354;28;20685;-76
2023/03/18 11:27:14;;;;;;;8.88;3.67;;;;;;;17.91;63.01;100913.03;5069957;28;20149;-78
2023/03/18 11:30:12;;;;;;;6.05;3.45;;;;;;;17.99;63.27;100910.78;5069608;28;20033;-76
2023/03/18 11:33:01;;;;;;;6.88;3.30;;;;;;;18.12;63.20;100913.56;5052739;28;20080;-77
2023/03/18 11:36:04;;;;;;;5.55;2.80;;;;;;;18.21;61.54;100919.31;5068390;28;20037;-77